sensor_id;sensor_type;location;lat;lon;timestamp;pressure;altitude;pressure_sealevel;temperature
76901;BMP280;65859;43.020;25.096;2022-12-07T07:26:02;99256.38;;;5.17
76901;BMP280;65859;43.020;25.096;2022-12-07T07:28:29;99262.38;;;5.22
76901;BMP280;65859;43.020;25.096;2022-12-07T07:30:55;99263.19;;;5.18
76901;BMP280;65859;43.020;25.096;2022-12-07T07:33:21;99267.00;;;5.31
76901;BMP280;65859;43.020;25.096;2022-12-07T07:35:48;99270.47;;;5.26
76901;BMP280;65859;43.020;25.096;2022-12-07T07:38:14;99256.84;;;5.24
76901;BMP280;65859;43.020;25.096;2022-12-07T07:40:40;99252.13;;;5.45
76901;BMP280;65859;43.020;25.096;2022-12-07T07:43:07;99256.28;;;5.46
76901;BMP280;65859;43.020;25.096;2022-12-07T07:45:33;99260.91;;;5.54
76901;BMP280;65859;43.020;25.096;2022-12-07T07:47:59;99256.03;;;5.85
76901;BMP280;65859;43.020;25.096;2022-12-07T07:50:26;99255.78;;;6.00
76901;BMP280;65859;43.020;25.096;2022-12-07T07:52:52;99265.19;;;6.20
76901;BMP280;65859;43.020;25.096;2022-12-07T07:55:20;99256.72;;;5.91
76901;BMP280;65859;43.020;25.096;2022-12-07T07:57:47;99267.13;;;5.82
76901;BMP280;65859;43.020;25.096;2022-12-07T08:00:15;99269.09;;;5.53
76901;BMP280;65859;43.020;25.096;2022-12-07T08:02:42;99263.06;;;5.71
76901;BMP280;65859;43.020;25.096;2022-12-07T08:05:10;99275.78;;;5.64
76901;BMP280;65859;43.020;25.096;2022-12-07T08:07:37;99260.78;;;5.64
76901;BMP280;65859;43.020;25.096;2022-12-07T08:10:04;99269.72;;;6.01
76901;BMP280;65859;43.020;25.096;2022-12-07T08:12:30;99273.81;;;6.72
76901;BMP280;65859;43.020;25.096;2022-12-07T08:14:57;99267.47;;;6.87
76901;BMP280;65859;43.020;25.096;2022-12-07T08:17:23;99267.34;;;6.65
76901;BMP280;65859;43.020;25.096;2022-12-07T08:19:49;99271.66;;;6.61
76901;BMP280;65859;43.020;25.096;2022-12-07T08:22:16;99262.19;;;6.87
76901;BMP280;65859;43.020;25.096;2022-12-07T08:24:42;99262.28;;;6.68
76901;BMP280;65859;43.020;25.096;2022-12-07T08:27:10;99261.69;;;6.58
76901;BMP280;65859;43.020;25.096;2022-12-07T08:29:36;99255.34;;;7.00
76901;BMP280;65859;43.020;25.096;2022-12-07T08:32:03;99256.13;;;7.50
76901;BMP280;65859;43.020;25.096;2022-12-07T08:34:29;99255.06;;;7.96
76901;BMP280;65859;43.020;25.096;2022-12-07T08:36:55;99261.25;;;7.47
76901;BMP280;65859;43.020;25.096;2022-12-07T08:39:22;99255.50;;;7.90
76901;BMP280;65859;43.020;25.096;2022-12-07T08:41:48;99262.97;;;7.51
76901;BMP280;65859;43.020;25.096;2022-12-07T08:44:15;99265.25;;;7.44
76901;BMP280;65859;43.020;25.096;2022-12-07T08:46:46;99258.16;;;7.90
76901;BMP280;65859;43.020;25.096;2022-12-07T08:49:22;99257.09;;;9.10
76901;BMP280;65859;43.020;25.096;2022-12-07T08:51:49;99249.47;;;9.78
76901;BMP280;65859;43.020;25.096;2022-12-07T08:54:17;99242.63;;;9.59
76901;BMP280;65859;43.020;25.096;2022-12-07T08:56:45;99241.72;;;9.38
76901;BMP280;65859;43.020;25.096;2022-12-07T08:59:15;99244.50;;;10.61
76901;BMP280;65859;43.020;25.096;2022-12-07T09:01:43;99243.13;;;10.55
76901;BMP280;65859;43.020;25.096;2022-12-07T09:04:10;99235.53;;;12.15
76901;BMP280;65859;43.020;25.096;2022-12-07T09:06:37;99234.97;;;13.39
76901;BMP280;65859;43.020;25.096;2022-12-07T09:09:04;99242.06;;;15.61
76901;BMP280;65859;43.020;25.096;2022-12-07T09:11:32;99233.19;;;15.57
76901;BMP280;65859;43.020;25.096;2022-12-07T09:13:58;99229.97;;;17.58
76901;BMP280;65859;43.020;25.096;2022-12-07T09:16:25;99223.41;;;16.44
76901;BMP280;65859;43.020;25.096;2022-12-07T09:18:51;99212.88;;;11.85
76901;BMP280;65859;43.020;25.096;2022-12-07T09:21:18;99209.19;;;10.90
76901;BMP280;65859;43.020;25.096;2022-12-07T09:23:44;99212.75;;;11.15
76901;BMP280;65859;43.020;25.096;2022-12-07T09:26:11;99213.66;;;11.73
76901;BMP280;65859;43.020;25.096;2022-12-07T09:28:37;99205.69;;;12.34
76901;BMP280;65859;43.020;25.096;2022-12-07T09:31:05;99205.69;;;10.57
76901;BMP280;65859;43.020;25.096;2022-12-07T09:33:32;99194.72;;;9.90
76901;BMP280;65859;43.020;25.096;2022-12-07T09:35:58;99204.13;;;11.39
76901;BMP280;65859;43.020;25.096;2022-12-07T09:38:25;99201.25;;;11.77
76901;BMP280;65859;43.020;25.096;2022-12-07T09:40:53;99199.28;;;11.20
76901;BMP280;65859;43.020;25.096;2022-12-07T09:43:23;99196.53;;;10.45
76901;BMP280;65859;43.020;25.096;2022-12-07T09:45:53;99184.63;;;10.51
76901;BMP280;65859;43.020;25.096;2022-12-07T09:50:49;99176.25;;;9.64
76901;BMP280;65859;43.020;25.096;2022-12-07T09:53:27;99168.72;;;9.84
76901;BMP280;65859;43.020;25.096;2022-12-07T09:55:54;99174.28;;;10.59
76901;BMP280;65859;43.020;25.096;2022-12-07T09:58:24;99163.66;;;10.38
76901;BMP280;65859;43.020;25.096;2022-12-07T10:01:00;99172.13;;;12.30
76901;BMP280;65859;43.020;25.096;2022-12-07T10:03:28;99168.13;;;14.46
76901;BMP280;65859;43.020;25.096;2022-12-07T11:03:55;99100.63;;;22.29
76901;BMP280;65859;43.020;25.096;2022-12-07T11:06:35;99113.09;;;19.19
76901;BMP280;65859;43.020;25.096;2022-12-07T11:12:09;99081.22;;;20.23
76901;BMP280;65859;43.020;25.096;2022-12-07T11:14:49;99079.13;;;19.75
76901;BMP280;65859;43.020;25.096;2022-12-07T11:17:33;99066.50;;;19.50
76901;BMP280;65859;43.020;25.096;2022-12-07T11:23:21;99057.78;;;20.13
76901;BMP280;65859;43.020;25.096;2022-12-07T11:31:18;99055.84;;;18.86
76901;BMP280;65859;43.020;25.096;2022-12-07T11:33:54;99050.34;;;21.20
76901;BMP280;65859;43.020;25.096;2022-12-07T11:38:57;99058.91;;;18.96
76901;BMP280;65859;43.020;25.096;2022-12-07T11:41:36;99041.03;;;20.42
76901;BMP280;65859;43.020;25.096;2022-12-07T11:44:32;99028.53;;;18.10
76901;BMP280;65859;43.020;25.096;2022-12-07T11:47:53;99030.09;;;13.92
76901;BMP280;65859;43.020;25.096;2022-12-07T11:53:20;99018.34;;;14.12
76901;BMP280;65859;43.020;25.096;2022-12-07T12:01:40;99001.06;;;12.29
76901;BMP280;65859;43.020;25.096;2022-12-07T12:06:39;98997.34;;;12.06
76901;BMP280;65859;43.020;25.096;2022-12-07T12:09:17;98994.03;;;13.44
76901;BMP280;65859;43.020;25.096;2022-12-07T12:28:04;98964.41;;;12.51
76901;BMP280;65859;43.020;25.096;2022-12-07T12:30:39;98975.16;;;12.70
76901;BMP280;65859;43.020;25.096;2022-12-07T12:33:29;98975.84;;;12.67
76901;BMP280;65859;43.020;25.096;2022-12-07T12:47:04;98958.47;;;11.61
76901;BMP280;65859;43.020;25.096;2022-12-07T12:49:40;98951.56;;;11.84
76901;BMP280;65859;43.020;25.096;2022-12-07T12:52:45;98953.63;;;11.91
76901;BMP280;65859;43.020;25.096;2022-12-07T12:55:16;98946.75;;;11.74
76901;BMP280;65859;43.020;25.096;2022-12-07T12:58:21;98943.13;;;11.82
76901;BMP280;65859;43.020;25.096;2022-12-07T13:00:34;98940.75;;;11.77
76901;BMP280;65859;43.020;25.096;2022-12-07T13:03:00;98939.97;;;11.64
76901;BMP280;65859;43.020;25.096;2022-12-07T13:05:30;98942.13;;;11.99
76901;BMP280;65859;43.020;25.096;2022-12-07T13:07:58;98947.13;;;12.16
76901;BMP280;65859;43.020;25.096;2022-12-07T13:15:52;98943.31;;;11.74
76901;BMP280;65859;43.020;25.096;2022-12-07T13:20:58;98939.06;;;11.85
76901;BMP280;65859;43.020;25.096;2022-12-07T13:29:19;98936.13;;;11.62
76901;BMP280;65859;43.020;25.096;2022-12-07T13:31:57;98928.72;;;11.55
76901;BMP280;65859;43.020;25.096;2022-12-07T13:34:51;98937.13;;;11.45
76901;BMP280;65859;43.020;25.096;2022-12-07T13:42:32;98928.19;;;11.25
76901;BMP280;65859;43.020;25.096;2022-12-07T13:45:16;98922.09;;;11.25
76901;BMP280;65859;43.020;25.096;2022-12-07T13:47:52;98921.09;;;11.17
76901;BMP280;65859;43.020;25.096;2022-12-07T13:50:31;98914.25;;;11.16
76901;BMP280;65859;43.020;25.096;2022-12-07T13:52:59;98920.41;;;11.32
76901;BMP280;65859;43.020;25.096;2022-12-07T13:55:26;98920.19;;;11.38
76901;BMP280;65859;43.020;25.096;2022-12-07T13:57:54;98925.19;;;11.27
76901;BMP280;65859;43.020;25.096;2022-12-07T14:00:26;98918.44;;;11.29
76901;BMP280;65859;43.020;25.096;2022-12-07T14:03:04;98912.88;;;11.47
76901;BMP280;65859;43.020;25.096;2022-12-07T14:05:35;98918.91;;;11.44
76901;BMP280;65859;43.020;25.096;2022-12-07T14:13:37;98923.78;;;11.05
76901;BMP280;65859;43.020;25.096;2022-12-07T14:16:29;98926.41;;;10.93
76901;BMP280;65859;43.020;25.096;2022-12-07T14:18:59;98926.72;;;10.91
76901;BMP280;65859;43.020;25.096;2022-12-07T14:21:28;98924.75;;;10.88
76901;BMP280;65859;43.020;25.096;2022-12-07T14:24:16;98920.41;;;10.84
76901;BMP280;65859;43.020;25.096;2022-12-07T14:26:48;98922.06;;;10.76
76901;BMP280;65859;43.020;25.096;2022-12-07T14:31:55;98927.72;;;10.41
76901;BMP280;65859;43.020;25.096;2022-12-07T14:34:23;98918.44;;;10.35
76901;BMP280;65859;43.020;25.096;2022-12-07T14:36:50;98921.06;;;10.23
76901;BMP280;65859;43.020;25.096;2022-12-07T14:39:18;98917.81;;;10.17
76901;BMP280;65859;43.020;25.096;2022-12-07T14:41:44;98921.56;;;10.16
76901;BMP280;65859;43.020;25.096;2022-12-07T14:44:21;98922.66;;;10.15
76901;BMP280;65859;43.020;25.096;2022-12-07T14:46:48;98922.41;;;10.08
76901;BMP280;65859;43.020;25.096;2022-12-07T14:49:16;98922.41;;;10.08
76901;BMP280;65859;43.020;25.096;2022-12-07T14:51:43;98914.38;;;10.17
76901;BMP280;65859;43.020;25.096;2022-12-07T14:54:18;98922.66;;;10.15
76901;BMP280;65859;43.020;25.096;2022-12-07T14:56:46;98907.94;;;10.06
76901;BMP280;65859;43.020;25.096;2022-12-07T14:59:18;98916.91;;;9.92
76901;BMP280;65859;43.020;25.096;2022-12-07T15:01:45;98916.22;;;9.83
76901;BMP280;65859;43.020;25.096;2022-12-07T15:04:11;98916.22;;;9.83
76901;BMP280;65859;43.020;25.096;2022-12-07T15:06:38;98910.31;;;9.78
76901;BMP280;65859;43.020;25.096;2022-12-07T15:09:04;98913.31;;;9.76
76901;BMP280;65859;43.020;25.096;2022-12-07T15:11:32;98918.13;;;9.74
76901;BMP280;65859;43.020;25.096;2022-12-07T15:13:59;98922.31;;;9.54
76901;BMP280;65859;43.020;25.096;2022-12-07T15:16:38;98919.38;;;9.17
76901;BMP280;65859;43.020;25.096;2022-12-07T15:19:09;98924.81;;;9.21
76901;BMP280;65859;43.020;25.096;2022-12-07T15:21:37;98927.41;;;9.38
76901;BMP280;65859;43.020;25.096;2022-12-07T15:24:03;98924.88;;;9.12
76901;BMP280;65859;43.020;25.096;2022-12-07T15:26:30;98924.41;;;9.10
76901;BMP280;65859;43.020;25.096;2022-12-07T15:28:57;98933.09;;;9.11
76901;BMP280;65859;43.020;25.096;2022-12-07T15:31:24;98928.81;;;8.89
76901;BMP280;65859;43.020;25.096;2022-12-07T15:33:50;98927.47;;;8.83
76901;BMP280;65859;43.020;25.096;2022-12-07T15:36:22;98938.03;;;8.83
76901;BMP280;65859;43.020;25.096;2022-12-07T15:38:50;98934.34;;;8.67
76901;BMP280;65859;43.020;25.096;2022-12-07T15:41:16;98937.31;;;8.65
76901;BMP280;65859;43.020;25.096;2022-12-07T15:43:44;98938.84;;;8.57
76901;BMP280;65859;43.020;25.096;2022-12-07T15:46:33;98941.66;;;8.52
76901;BMP280;65859;43.020;25.096;2022-12-07T15:49:00;98936.38;;;8.52
76901;BMP280;65859;43.020;25.096;2022-12-07T15:51:27;98942.94;;;8.46
76901;BMP280;65859;43.020;25.096;2022-12-07T15:53:54;98934.69;;;8.39
76901;BMP280;65859;43.020;25.096;2022-12-07T15:56:20;98922.84;;;8.45
76901;BMP280;65859;43.020;25.096;2022-12-07T15:58:47;98931.09;;;8.61
76901;BMP280;65859;43.020;25.096;2022-12-07T16:01:15;98930.44;;;8.64
76901;BMP280;65859;43.020;25.096;2022-12-07T16:03:42;98931.41;;;8.51
76901;BMP280;65859;43.020;25.096;2022-12-07T16:06:08;98931.69;;;8.49
76901;BMP280;65859;43.020;25.096;2022-12-07T16:08:35;98927.06;;;8.46
76901;BMP280;65859;43.020;25.096;2022-12-07T16:11:05;98929.09;;;8.32
76901;BMP280;65859;43.020;25.096;2022-12-07T16:13:32;98927.34;;;8.27
76901;BMP280;65859;43.020;25.096;2022-12-07T16:16:04;98924.44;;;8.03
76901;BMP280;65859;43.020;25.096;2022-12-07T16:18:30;98920.19;;;7.93
76901;BMP280;65859;43.020;25.096;2022-12-07T16:20:57;98928.28;;;7.88
76901;BMP280;65859;43.020;25.096;2022-12-07T16:23:23;98947.56;;;8.06
76901;BMP280;65859;43.020;25.096;2022-12-07T16:25:49;98947.72;;;7.92
76901;BMP280;65859;43.020;25.096;2022-12-07T16:28:16;98944.25;;;7.83
76901;BMP280;65859;43.020;25.096;2022-12-07T16:30:42;98941.47;;;7.71
76901;BMP280;65859;43.020;25.096;2022-12-07T16:33:08;98945.69;;;7.41
76901;BMP280;65859;43.020;25.096;2022-12-07T16:35:38;98947.56;;;7.40
76901;BMP280;65859;43.020;25.096;2022-12-07T16:38:07;98946.56;;;7.27
76901;BMP280;65859;43.020;25.096;2022-12-07T16:40:33;98947.09;;;7.07
76901;BMP280;65859;43.020;25.096;2022-12-07T16:43:00;98947.28;;;7.11
76901;BMP280;65859;43.020;25.096;2022-12-07T16:45:26;98944.81;;;7.14
76901;BMP280;65859;43.020;25.096;2022-12-07T16:47:53;98956.91;;;7.15
76901;BMP280;65859;43.020;25.096;2022-12-07T16:50:20;98951.50;;;7.20
76901;BMP280;65859;43.020;25.096;2022-12-07T16:52:46;98957.44;;;7.26
76901;BMP280;65859;43.020;25.096;2022-12-07T16:55:12;98960.81;;;7.18
76901;BMP280;65859;43.020;25.096;2022-12-07T16:57:39;98962.88;;;6.98
76901;BMP280;65859;43.020;25.096;2022-12-07T17:00:06;98956.22;;;6.78
76901;BMP280;65859;43.020;25.096;2022-12-07T17:02:32;98960.84;;;6.95
76901;BMP280;65859;43.020;25.096;2022-12-07T17:04:59;98962.03;;;6.89
76901;BMP280;65859;43.020;25.096;2022-12-07T17:07:25;98971.56;;;6.99
76901;BMP280;65859;43.020;25.096;2022-12-07T17:09:53;98974.13;;;6.90
76901;BMP280;65859;43.020;25.096;2022-12-07T17:12:19;98979.38;;;7.13
76901;BMP280;65859;43.020;25.096;2022-12-07T17:14:46;98978.91;;;7.33
76901;BMP280;65859;43.020;25.096;2022-12-07T17:17:30;98987.72;;;7.06
76901;BMP280;65859;43.020;25.096;2022-12-07T17:19:58;98986.00;;;7.01
76901;BMP280;65859;43.020;25.096;2022-12-07T17:22:25;98988.03;;;7.04
76901;BMP280;65859;43.020;25.096;2022-12-07T17:24:51;98980.72;;;6.57
76901;BMP280;65859;43.020;25.096;2022-12-07T17:27:17;98984.72;;;6.54
76901;BMP280;65859;43.020;25.096;2022-12-07T17:29:44;98989.13;;;6.59
76901;BMP280;65859;43.020;25.096;2022-12-07T17:32:10;98989.72;;;7.00
76901;BMP280;65859;43.020;25.096;2022-12-07T17:34:36;98987.72;;;7.06
76901;BMP280;65859;43.020;25.096;2022-12-07T17:37:03;98998.38;;;6.70
76901;BMP280;65859;43.020;25.096;2022-12-07T17:39:29;99000.09;;;6.74
76901;BMP280;65859;43.020;25.096;2022-12-07T17:41:56;98996.91;;;6.64
76901;BMP280;65859;43.020;25.096;2022-12-07T17:44:41;99000.34;;;6.50
76901;BMP280;65859;43.020;25.096;2022-12-07T17:47:08;99007.41;;;6.41
76901;BMP280;65859;43.020;25.096;2022-12-07T17:49:36;99010.09;;;6.14
76901;BMP280;65859;43.020;25.096;2022-12-07T17:52:03;99005.78;;;6.18
76901;BMP280;65859;43.020;25.096;2022-12-07T17:54:48;99001.97;;;6.24
76901;BMP280;65859;43.020;25.096;2022-12-07T17:57:14;99001.97;;;6.10
76901;BMP280;65859;43.020;25.096;2022-12-07T17:59:40;99002.19;;;6.50
76901;BMP280;65859;43.020;25.096;2022-12-07T18:02:09;99002.16;;;6.27
76901;BMP280;65859;43.020;25.096;2022-12-07T18:04:36;99005.00;;;6.31
76901;BMP280;65859;43.020;25.096;2022-12-07T18:07:02;99003.69;;;6.42
76901;BMP280;65859;43.020;25.096;2022-12-07T18:09:31;99006.72;;;6.36
76901;BMP280;65859;43.020;25.096;2022-12-07T18:11:58;98999.75;;;6.17
76901;BMP280;65859;43.020;25.096;2022-12-07T18:14:25;98997.94;;;5.90
76901;BMP280;65859;43.020;25.096;2022-12-07T18:16:51;99000.66;;;5.85
76901;BMP280;65859;43.020;25.096;2022-12-07T18:19:18;99004.22;;;6.17
76901;BMP280;65859;43.020;25.096;2022-12-07T18:21:44;99005.50;;;6.33
76901;BMP280;65859;43.020;25.096;2022-12-07T18:24:14;99005.78;;;6.18
76901;BMP280;65859;43.020;25.096;2022-12-07T18:26:41;99021.00;;;6.21
76901;BMP280;65859;43.020;25.096;2022-12-07T18:29:12;99021.19;;;6.38
76901;BMP280;65859;43.020;25.096;2022-12-07T18:31:39;99024.31;;;6.13
76901;BMP280;65859;43.020;25.096;2022-12-07T18:34:08;99010.88;;;5.87
76901;BMP280;65859;43.020;25.096;2022-12-07T18:36:40;99025.63;;;5.74
76901;BMP280;65859;43.020;25.096;2022-12-07T18:39:11;99030.38;;;5.99
76901;BMP280;65859;43.020;25.096;2022-12-07T18:41:38;99030.06;;;6.28
76901;BMP280;65859;43.020;25.096;2022-12-07T18:44:06;99023.44;;;6.31
76901;BMP280;65859;43.020;25.096;2022-12-07T18:46:33;99030.09;;;6.15
76901;BMP280;65859;43.020;25.096;2022-12-07T18:48:59;99025.97;;;5.81
76901;BMP280;65859;43.020;25.096;2022-12-07T18:51:27;99020.47;;;5.50
76901;BMP280;65859;43.020;25.096;2022-12-07T18:53:57;99031.00;;;5.50
76901;BMP280;65859;43.020;25.096;2022-12-07T18:56:26;99033.53;;;5.41
76901;BMP280;65859;43.020;25.096;2022-12-07T18:58:55;99040.16;;;5.39
76901;BMP280;65859;43.020;25.096;2022-12-07T19:01:42;99035.19;;;5.37
76901;BMP280;65859;43.020;25.096;2022-12-07T19:04:09;99038.94;;;5.31
76901;BMP280;65859;43.020;25.096;2022-12-07T19:06:35;99032.78;;;5.22
76901;BMP280;65859;43.020;25.096;2022-12-07T19:09:03;99034.91;;;5.20
76901;BMP280;65859;43.020;25.096;2022-12-07T19:11:31;99040.34;;;4.91
76901;BMP280;65859;43.020;25.096;2022-12-07T19:14:20;99049.59;;;4.88
76901;BMP280;65859;43.020;25.096;2022-12-07T19:16:49;99048.88;;;4.83
76901;BMP280;65859;43.020;25.096;2022-12-07T19:19:20;99058.84;;;5.18
76901;BMP280;65859;43.020;25.096;2022-12-07T19:21:46;99046.16;;;5.07
76901;BMP280;65859;43.020;25.096;2022-12-07T19:24:13;99043.84;;;4.67
76901;BMP280;65859;43.020;25.096;2022-12-07T19:26:41;99050.50;;;4.79
76901;BMP280;65859;43.020;25.096;2022-12-07T19:29:08;99066.28;;;4.79
76901;BMP280;65859;43.020;25.096;2022-12-07T19:31:35;99065.84;;;4.71
76901;BMP280;65859;43.020;25.096;2022-12-07T19:34:01;99060.91;;;4.46
76901;BMP280;65859;43.020;25.096;2022-12-07T19:36:32;99069.78;;;4.50
76901;BMP280;65859;43.020;25.096;2022-12-07T19:38:58;99074.09;;;5.03
76901;BMP280;65859;43.020;25.096;2022-12-07T19:41:25;99082.94;;;5.12
76901;BMP280;65859;43.020;25.096;2022-12-07T19:44:04;99086.38;;;5.26
76901;BMP280;65859;43.020;25.096;2022-12-07T19:46:31;99077.13;;;5.29
76901;BMP280;65859;43.020;25.096;2022-12-07T19:48:58;99073.31;;;4.83
76901;BMP280;65859;43.020;25.096;2022-12-07T19:51:26;99068.03;;;4.64
76901;BMP280;65859;43.020;25.096;2022-12-07T19:53:53;99064.28;;;4.89
76901;BMP280;65859;43.020;25.096;2022-12-07T19:56:21;99073.63;;;5.14
76901;BMP280;65859;43.020;25.096;2022-12-07T19:58:48;99075.78;;;5.12
76901;BMP280;65859;43.020;25.096;2022-12-07T20:01:15;99067.91;;;5.12
76901;BMP280;65859;43.020;25.096;2022-12-07T20:03:42;99078.28;;;5.04
76901;BMP280;65859;43.020;25.096;2022-12-07T20:06:18;99082.69;;;4.89
76901;BMP280;65859;43.020;25.096;2022-12-07T20:08:46;99085.91;;;5.05
76901;BMP280;65859;43.020;25.096;2022-12-07T20:11:15;99091.50;;;4.98
76901;BMP280;65859;43.020;25.096;2022-12-07T20:14:00;99089.63;;;4.80
76901;BMP280;65859;43.020;25.096;2022-12-07T20:16:27;99079.34;;;5.03
76901;BMP280;65859;43.020;25.096;2022-12-07T20:18:54;99079.88;;;4.62
76901;BMP280;65859;43.020;25.096;2022-12-07T20:21:20;99075.06;;;4.45
76901;BMP280;65859;43.020;25.096;2022-12-07T20:23:47;99071.75;;;4.39
76901;BMP280;65859;43.020;25.096;2022-12-07T20:26:14;99077.19;;;4.19
76901;BMP280;65859;43.020;25.096;2022-12-07T20:28:41;99077.59;;;4.55
76901;BMP280;65859;43.020;25.096;2022-12-07T20:31:16;99077.94;;;4.91
76901;BMP280;65859;43.020;25.096;2022-12-07T20:33:43;99081.06;;;4.93
76901;BMP280;65859;43.020;25.096;2022-12-07T20:36:14;99080.41;;;4.64
76901;BMP280;65859;43.020;25.096;2022-12-07T20:38:41;99076.75;;;4.17
76901;BMP280;65859;43.020;25.096;2022-12-07T20:41:11;99089.75;;;3.98
76901;BMP280;65859;43.020;25.096;2022-12-07T20:43:57;99087.84;;;3.80
76901;BMP280;65859;43.020;25.096;2022-12-07T20:46:24;99082.16;;;3.67
76901;BMP280;65859;43.020;25.096;2022-12-07T20:48:51;99086.13;;;3.65
76901;BMP280;65859;43.020;25.096;2022-12-07T20:51:18;99093.78;;;3.56
76901;BMP280;65859;43.020;25.096;2022-12-07T20:53:44;99094.53;;;3.62
76901;BMP280;65859;43.020;25.096;2022-12-07T20:56:25;99100.66;;;3.81
76901;BMP280;65859;43.020;25.096;2022-12-07T20:58:56;99106.47;;;4.07
76901;BMP280;65859;43.020;25.096;2022-12-07T21:01:24;99098.28;;;4.14
76901;BMP280;65859;43.020;25.096;2022-12-07T21:03:55;99097.16;;;4.44
76901;BMP280;65859;43.020;25.096;2022-12-07T21:06:25;99101.81;;;4.52
76901;BMP280;65859;43.020;25.096;2022-12-07T21:08:54;99101.22;;;4.79
76901;BMP280;65859;43.020;25.096;2022-12-07T21:11:21;99100.19;;;4.32
76901;BMP280;65859;43.020;25.096;2022-12-07T21:13:48;99092.38;;;3.98
76901;BMP280;65859;43.020;25.096;2022-12-07T21:16:23;99101.66;;;3.90
76901;BMP280;65859;43.020;25.096;2022-12-07T21:18:52;99108.22;;;3.88
76901;BMP280;65859;43.020;25.096;2022-12-07T21:21:19;99107.31;;;4.03
76901;BMP280;65859;43.020;25.096;2022-12-07T21:23:47;99107.63;;;3.67
76901;BMP280;65859;43.020;25.096;2022-12-07T21:26:19;99112.28;;;3.75
76901;BMP280;65859;43.020;25.096;2022-12-07T21:28:46;99110.47;;;3.70
76901;BMP280;65859;43.020;25.096;2022-12-07T21:31:14;99112.22;;;3.80
76901;BMP280;65859;43.020;25.096;2022-12-07T21:33:42;99105.19;;;3.76
76901;BMP280;65859;43.020;25.096;2022-12-07T21:36:10;99108.47;;;3.91
76901;BMP280;65859;43.020;25.096;2022-12-07T21:38:37;99115.31;;;3.87
76901;BMP280;65859;43.020;25.096;2022-12-07T21:43:44;99124.22;;;3.86
76901;BMP280;65859;43.020;25.096;2022-12-07T21:46:11;99119.31;;;3.80
76901;BMP280;65859;43.020;25.096;2022-12-07T21:48:38;99123.22;;;4.16
76901;BMP280;65859;43.020;25.096;2022-12-07T21:51:09;99112.94;;;4.68
76901;BMP280;65859;43.020;25.096;2022-12-07T21:53:36;99115.28;;;4.88
76901;BMP280;65859;43.020;25.096;2022-12-07T21:56:03;99113.41;;;4.70
76901;BMP280;65859;43.020;25.096;2022-12-07T21:58:31;99118.03;;;4.78
76901;BMP280;65859;43.020;25.096;2022-12-07T22:00:57;99118.84;;;4.55
76901;BMP280;65859;43.020;25.096;2022-12-07T22:03:24;99131.06;;;4.88
76901;BMP280;65859;43.020;25.096;2022-12-07T22:06:01;99126.31;;;4.66
76901;BMP280;65859;43.020;25.096;2022-12-07T22:08:27;99133.38;;;4.47
76901;BMP280;65859;43.020;25.096;2022-12-07T22:10:54;99129.84;;;4.99
76901;BMP280;65859;43.020;25.096;2022-12-07T22:13:25;99132.56;;;4.94
76901;BMP280;65859;43.020;25.096;2022-12-07T22:16:11;99138.63;;;4.95
76901;BMP280;65859;43.020;25.096;2022-12-07T22:18:37;99137.59;;;4.72
76901;BMP280;65859;43.020;25.096;2022-12-07T22:21:04;99137.13;;;4.12
76901;BMP280;65859;43.020;25.096;2022-12-07T22:23:31;99145.16;;;3.96
76901;BMP280;65859;43.020;25.096;2022-12-07T22:25:57;99148.69;;;4.16
76901;BMP280;65859;43.020;25.096;2022-12-07T22:28:24;99144.22;;;4.40
76901;BMP280;65859;43.020;25.096;2022-12-07T22:30:50;99143.88;;;4.47
76901;BMP280;65859;43.020;25.096;2022-12-07T22:33:16;99156.34;;;4.84
76901;BMP280;65859;43.020;25.096;2022-12-07T22:35:43;99146.44;;;4.57
76901;BMP280;65859;43.020;25.096;2022-12-07T22:38:10;99152.16;;;4.59
76901;BMP280;65859;43.020;25.096;2022-12-07T22:40:37;99148.34;;;4.94
76901;BMP280;65859;43.020;25.096;2022-12-07T22:43:03;99140.91;;;4.78
76901;BMP280;65859;43.020;25.096;2022-12-07T22:45:30;99138.34;;;4.19
76901;BMP280;65859;43.020;25.096;2022-12-07T22:47:56;99133.00;;;4.78
76901;BMP280;65859;43.020;25.096;2022-12-07T22:50:22;99131.34;;;4.87
76901;BMP280;65859;43.020;25.096;2022-12-07T22:52:49;99134.50;;;4.65
76901;BMP280;65859;43.020;25.096;2022-12-07T22:55:15;99139.09;;;4.54
76901;BMP280;65859;43.020;25.096;2022-12-07T22:57:41;99140.50;;;4.41
76901;BMP280;65859;43.020;25.096;2022-12-07T23:00:08;99146.91;;;4.35
76901;BMP280;65859;43.020;25.096;2022-12-07T23:02:35;99157.44;;;4.30
76901;BMP280;65859;43.020;25.096;2022-12-07T23:05:01;99150.63;;;4.34
76901;BMP280;65859;43.020;25.096;2022-12-07T23:07:27;99156.72;;;4.48
76901;BMP280;65859;43.020;25.096;2022-12-07T23:09:55;99148.91;;;4.43
76901;BMP280;65859;43.020;25.096;2022-12-07T23:12:21;99149.09;;;4.52
76901;BMP280;65859;43.020;25.096;2022-12-07T23:15:06;99151.72;;;4.52
76901;BMP280;65859;43.020;25.096;2022-12-07T23:17:35;99153.53;;;4.57
76901;BMP280;65859;43.020;25.096;2022-12-07T23:20:02;99157.19;;;4.56
76901;BMP280;65859;43.020;25.096;2022-12-07T23:22:29;99159.75;;;4.61
76901;BMP280;65859;43.020;25.096;2022-12-07T23:24:55;99156.75;;;4.72
76901;BMP280;65859;43.020;25.096;2022-12-07T23:27:22;99159.16;;;4.69
76901;BMP280;65859;43.020;25.096;2022-12-07T23:29:48;99162.88;;;4.63
76901;BMP280;65859;43.020;25.096;2022-12-07T23:32:14;99170.22;;;4.66
76901;BMP280;65859;43.020;25.096;2022-12-07T23:34:43;99175.31;;;4.57
76901;BMP280;65859;43.020;25.096;2022-12-07T23:37:09;99172.91;;;4.61
76901;BMP280;65859;43.020;25.096;2022-12-07T23:39:35;99169.28;;;4.57
76901;BMP280;65859;43.020;25.096;2022-12-07T23:42:05;99169.38;;;4.46
76901;BMP280;65859;43.020;25.096;2022-12-07T23:44:31;99178.56;;;4.49
76901;BMP280;65859;43.020;25.096;2022-12-07T23:46:58;99185.63;;;4.48
76901;BMP280;65859;43.020;25.096;2022-12-07T23:49:24;99186.38;;;4.54
76901;BMP280;65859;43.020;25.096;2022-12-07T23:51:50;99195.19;;;4.63
76901;BMP280;65859;43.020;25.096;2022-12-07T23:54:17;99189.16;;;4.63
76901;BMP280;65859;43.020;25.096;2022-12-07T23:56:43;99196.00;;;4.64
76901;BMP280;65859;43.020;25.096;2022-12-07T23:59:12;99197.78;;;4.68
